Alma, MI (48801)

12:09 AM EST on February 14, 2016 (GMT -0500)
DPNF | | Change Station
CLOSE
Current Station
Personal Weather Station
Location: Alma, MI
Elevation: 768 ft
Nearby Weather Stations

Elev 768 ft 43.37 °N, 84.65 °W | Updated 10 minutes ago

Clear
Clear
4.8 °F
Feels Like 5 °F
N
0.0
Wind Variable Wind from North

Today
High -- | Low -- °F
--% Chance of Precip.
Yesterday
High -- | Low -- °F
Precip. -- in
Pressure 30.46 in
Visibility 10.0 miles
Clouds Clear
Windchill 5 °F
Dew Point 2 °F
Humidity 86%
Rainfall in
Snow Depth Not available.
7:38 AM 6:07 PM
Waxing Crescent, 38% visible
METAR KAMN 140452Z AUTO 25003KT 10SM CLR M14/M17 A3046 RMK AO2 T11401170
Pressure 30.46 in
Visibility 10.0 miles
Clouds Clear
Windchill 5 °F
Dew Point 2 °F
Humidity 86%
Rainfall in
Snow Depth Not available.
7:38 AM 6:07 PM
Waxing Crescent, 38% visible
METAR KAMN 140452Z AUTO 25003KT 10SM CLR M14/M17 A3046 RMK AO2 T11401170

10-Day Weather Forecast

Almanac

Astronomy

Feb. 14, 2016 Rise Set
Actual Time
Civil Twilight
Nautical Twilight
Astronomical Twilight
Moon
Length of Visible Light
Length of Day
Tomorrow will be .
, % of the Moon is Illuminated

Today's Extremes

State Highs State Lows

Community

WunderPhotos

Upload Photos

1,892,748 photos uploaded!

WunderBlog® & News

Nearby

Air Quality

  Air Quality AQ Index Pollutant
Not available.

Snow Depth

Station Depth Elevation

Earthquake Activity

City Distance Mag. Time & Date
Minimum magnitude displayed is 2.5.

Coastal Water Temperatures

Place Temperature

Stations

Nearby Weather Stations

Station Location Temp. Windchill Dew Point Humidity Wind Precip. Elev Updated Type
                   

Watches & Warnings

There are currently no watches in effect.